Terminal Aerodrome Forecast
Issued by NWS

Home | Current Version | Previous Version | Text Only | Print | Product List | Glossary On
Versions: 1 2 3 4 5 6 7 8 9 10 11 12 13
000
FTUS46 KPDT 242320
TAFBDN
TAF
KBDN 242320Z 2500/2524 34010KT P6SM BKN045 BKN100
     FM250400 VRB05KT P6SM SCT050 BKN100
     FM250800 23004KT P6SM SCT100
     FM252200 35007KT P6SM SCT120=

USA.gov is the U.S. government's official web portal to all federal, state and local government web resources and services.